sensor_id;sensor_type;location;lat;lon;timestamp;temperature;humidity
26503;DHT22;14177;51.520;6.764;2023-12-29T00:02:17;11.40;99.90
26503;DHT22;14177;51.520;6.764;2023-12-29T00:04:44;11.40;99.90
26503;DHT22;14177;51.520;6.764;2023-12-29T00:07:12;11.40;99.90
26503;DHT22;14177;51.520;6.764;2023-12-29T00:09:39;11.40;99.90
26503;DHT22;14177;51.520;6.764;2023-12-29T00:12:08;11.40;99.90
26503;DHT22;14177;51.520;6.764;2023-12-29T00:14:39;11.50;99.90
26503;DHT22;14177;51.520;6.764;2023-12-29T00:17:07;11.50;99.90
26503;DHT22;14177;51.520;6.764;2023-12-29T00:19:34;11.50;99.90
26503;DHT22;14177;51.520;6.764;2023-12-29T00:22:01;11.50;99.90
26503;DHT22;14177;51.520;6.764;2023-12-29T00:24:30;11.50;99.90
26503;DHT22;14177;51.520;6.764;2023-12-29T00:27:01;11.50;99.90
26503;DHT22;14177;51.520;6.764;2023-12-29T00:29:28;11.50;99.90
26503;DHT22;14177;51.520;6.764;2023-12-29T00:31:59;11.50;99.90
26503;DHT22;14177;51.520;6.764;2023-12-29T00:34:27;11.60;99.90
26503;DHT22;14177;51.520;6.764;2023-12-29T00:36:54;11.50;99.90
26503;DHT22;14177;51.520;6.764;2023-12-29T00:39:21;11.50;99.90
26503;DHT22;14177;51.520;6.764;2023-12-29T00:41:56;11.50;99.90
26503;DHT22;14177;51.520;6.764;2023-12-29T00:44:24;11.50;99.90
26503;DHT22;14177;51.520;6.764;2023-12-29T00:46:51;11.50;99.90
26503;DHT22;14177;51.520;6.764;2023-12-29T00:49:18;11.50;99.90
26503;DHT22;14177;51.520;6.764;2023-12-29T00:51:46;11.50;99.90
26503;DHT22;14177;51.520;6.764;2023-12-29T00:54:14;11.50;99.90
26503;DHT22;14177;51.520;6.764;2023-12-29T00:56:51;11.50;99.90
26503;DHT22;14177;51.520;6.764;2023-12-29T00:59:19;11.50;99.90
26503;DHT22;14177;51.520;6.764;2023-12-29T01:01:48;11.50;99.90
26503;DHT22;14177;51.520;6.764;2023-12-29T01:04:16;11.50;99.90
26503;DHT22;14177;51.520;6.764;2023-12-29T01:06:43;11.50;99.90
26503;DHT22;14177;51.520;6.764;2023-12-29T01:09:11;11.40;99.90
26503;DHT22;14177;51.520;6.764;2023-12-29T01:11:39;11.50;99.90
26503;DHT22;14177;51.520;6.764;2023-12-29T01:14:07;11.50;99.90
26503;DHT22;14177;51.520;6.764;2023-12-29T01:16:34;11.50;99.90
26503;DHT22;14177;51.520;6.764;2023-12-29T01:19:01;11.60;99.90
26503;DHT22;14177;51.520;6.764;2023-12-29T01:21:28;11.60;99.90
26503;DHT22;14177;51.520;6.764;2023-12-29T01:24:00;11.60;99.90
26503;DHT22;14177;51.520;6.764;2023-12-29T01:26:27;11.50;99.90
26503;DHT22;14177;51.520;6.764;2023-12-29T01:28:55;11.60;99.90
26503;DHT22;14177;51.520;6.764;2023-12-29T01:31:23;11.50;99.90
26503;DHT22;14177;51.520;6.764;2023-12-29T01:33:50;11.50;99.90
26503;DHT22;14177;51.520;6.764;2023-12-29T01:36:18;11.50;99.90
26503;DHT22;14177;51.520;6.764;2023-12-29T01:38:51;11.50;99.90
26503;DHT22;14177;51.520;6.764;2023-12-29T01:41:21;11.60;99.90
26503;DHT22;14177;51.520;6.764;2023-12-29T01:46:29;11.50;99.90
26503;DHT22;14177;51.520;6.764;2023-12-29T01:48:58;11.40;99.90
26503;DHT22;14177;51.520;6.764;2023-12-29T01:51:27;11.30;99.90
26503;DHT22;14177;51.520;6.764;2023-12-29T01:53:56;11.20;99.90
26503;DHT22;14177;51.520;6.764;2023-12-29T01:56:25;11.20;99.90
26503;DHT22;14177;51.520;6.764;2023-12-29T01:58:52;11.10;99.90
26503;DHT22;14177;51.520;6.764;2023-12-29T02:01:31;11.00;99.90
26503;DHT22;14177;51.520;6.764;2023-12-29T02:03:59;10.90;99.90
26503;DHT22;14177;51.520;6.764;2023-12-29T02:06:27;10.70;99.90
26503;DHT22;14177;51.520;6.764;2023-12-29T02:08:55;10.70;99.90
26503;DHT22;14177;51.520;6.764;2023-12-29T02:11:22;10.60;99.90
26503;DHT22;14177;51.520;6.764;2023-12-29T02:13:49;10.50;99.90
26503;DHT22;14177;51.520;6.764;2023-12-29T02:16:20;10.40;99.90
26503;DHT22;14177;51.520;6.764;2023-12-29T02:18:55;10.40;99.90
26503;DHT22;14177;51.520;6.764;2023-12-29T02:21:25;10.40;99.90
26503;DHT22;14177;51.520;6.764;2023-12-29T02:23:52;10.30;99.90
26503;DHT22;14177;51.520;6.764;2023-12-29T02:26:23;10.30;99.90
26503;DHT22;14177;51.520;6.764;2023-12-29T02:29:00;10.30;99.90
26503;DHT22;14177;51.520;6.764;2023-12-29T02:31:35;10.30;99.90
26503;DHT22;14177;51.520;6.764;2023-12-29T02:34:08;10.30;99.90
26503;DHT22;14177;51.520;6.764;2023-12-29T02:36:40;10.30;99.90
26503;DHT22;14177;51.520;6.764;2023-12-29T02:39:10;10.30;99.90
26503;DHT22;14177;51.520;6.764;2023-12-29T02:41:38;10.20;99.90
26503;DHT22;14177;51.520;6.764;2023-12-29T02:44:06;10.20;99.90
26503;DHT22;14177;51.520;6.764;2023-12-29T02:46:33;10.20;99.90
26503;DHT22;14177;51.520;6.764;2023-12-29T02:49:00;10.20;99.90
26503;DHT22;14177;51.520;6.764;2023-12-29T02:51:27;10.20;99.90
26503;DHT22;14177;51.520;6.764;2023-12-29T02:53:54;10.20;99.90
26503;DHT22;14177;51.520;6.764;2023-12-29T02:56:20;10.20;99.90
26503;DHT22;14177;51.520;6.764;2023-12-29T02:58:48;10.20;99.90
26503;DHT22;14177;51.520;6.764;2023-12-29T03:01:15;10.20;99.90
26503;DHT22;14177;51.520;6.764;2023-12-29T03:03:42;10.20;99.90
26503;DHT22;14177;51.520;6.764;2023-12-29T03:06:11;10.20;99.90
26503;DHT22;14177;51.520;6.764;2023-12-29T03:08:38;10.30;99.90
26503;DHT22;14177;51.520;6.764;2023-12-29T03:11:06;10.30;99.90
26503;DHT22;14177;51.520;6.764;2023-12-29T03:13:33;10.40;99.90
26503;DHT22;14177;51.520;6.764;2023-12-29T03:16:00;10.40;99.90
26503;DHT22;14177;51.520;6.764;2023-12-29T03:18:28;10.40;99.90
26503;DHT22;14177;51.520;6.764;2023-12-29T03:20:55;10.50;99.90
26503;DHT22;14177;51.520;6.764;2023-12-29T03:23:22;10.50;99.90
26503;DHT22;14177;51.520;6.764;2023-12-29T03:25:49;10.50;99.90
26503;DHT22;14177;51.520;6.764;2023-12-29T03:28:16;10.60;99.90
26503;DHT22;14177;51.520;6.764;2023-12-29T03:30:43;10.50;99.90
26503;DHT22;14177;51.520;6.764;2023-12-29T03:33:11;10.50;99.90
26503;DHT22;14177;51.520;6.764;2023-12-29T03:35:38;10.50;99.90
26503;DHT22;14177;51.520;6.764;2023-12-29T03:38:06;10.60;99.90
26503;DHT22;14177;51.520;6.764;2023-12-29T03:40:33;10.60;99.90
26503;DHT22;14177;51.520;6.764;2023-12-29T03:43:00;10.70;99.90
26503;DHT22;14177;51.520;6.764;2023-12-29T03:45:28;10.70;99.90
26503;DHT22;14177;51.520;6.764;2023-12-29T03:47:55;10.70;99.90
26503;DHT22;14177;51.520;6.764;2023-12-29T03:50:23;10.70;99.90
26503;DHT22;14177;51.520;6.764;2023-12-29T03:52:49;10.70;99.90
26503;DHT22;14177;51.520;6.764;2023-12-29T03:55:16;10.70;99.90
26503;DHT22;14177;51.520;6.764;2023-12-29T03:57:43;10.80;99.90
26503;DHT22;14177;51.520;6.764;2023-12-29T04:00:14;10.80;99.90
26503;DHT22;14177;51.520;6.764;2023-12-29T04:02:42;10.80;99.90
26503;DHT22;14177;51.520;6.764;2023-12-29T04:05:11;10.80;99.90
26503;DHT22;14177;51.520;6.764;2023-12-29T04:07:41;10.80;99.90
26503;DHT22;14177;51.520;6.764;2023-12-29T04:10:08;10.80;99.90
26503;DHT22;14177;51.520;6.764;2023-12-29T04:12:35;10.90;99.90
26503;DHT22;14177;51.520;6.764;2023-12-29T04:15:04;10.80;99.90
26503;DHT22;14177;51.520;6.764;2023-12-29T04:17:31;10.90;99.90
26503;DHT22;14177;51.520;6.764;2023-12-29T04:19:58;10.90;99.90
26503;DHT22;14177;51.520;6.764;2023-12-29T04:22:26;10.90;99.90
26503;DHT22;14177;51.520;6.764;2023-12-29T04:24:53;10.90;99.90
26503;DHT22;14177;51.520;6.764;2023-12-29T04:27:21;10.90;99.90
26503;DHT22;14177;51.520;6.764;2023-12-29T04:29:48;10.90;99.90
26503;DHT22;14177;51.520;6.764;2023-12-29T04:32:15;10.90;99.90
26503;DHT22;14177;51.520;6.764;2023-12-29T04:34:43;10.90;99.90
26503;DHT22;14177;51.520;6.764;2023-12-29T04:37:10;11.00;99.90
26503;DHT22;14177;51.520;6.764;2023-12-29T04:39:41;11.00;99.90
26503;DHT22;14177;51.520;6.764;2023-12-29T04:42:08;11.00;99.90
26503;DHT22;14177;51.520;6.764;2023-12-29T04:44:35;11.00;99.90
26503;DHT22;14177;51.520;6.764;2023-12-29T04:47:02;10.90;99.90
26503;DHT22;14177;51.520;6.764;2023-12-29T04:49:29;10.90;99.90
26503;DHT22;14177;51.520;6.764;2023-12-29T04:51:56;10.80;99.90
26503;DHT22;14177;51.520;6.764;2023-12-29T04:54:23;10.80;99.90
26503;DHT22;14177;51.520;6.764;2023-12-29T04:56:51;10.80;99.90
26503;DHT22;14177;51.520;6.764;2023-12-29T04:59:18;10.90;99.90
26503;DHT22;14177;51.520;6.764;2023-12-29T05:01:58;10.90;99.90
26503;DHT22;14177;51.520;6.764;2023-12-29T05:04:54;10.80;99.90
26503;DHT22;14177;51.520;6.764;2023-12-29T05:08:08;10.90;99.90
26503;DHT22;14177;51.520;6.764;2023-12-29T05:10:41;10.90;99.90
26503;DHT22;14177;51.520;6.764;2023-12-29T05:13:22;10.90;99.90
26503;DHT22;14177;51.520;6.764;2023-12-29T05:16:13;10.90;99.90
26503;DHT22;14177;51.520;6.764;2023-12-29T05:19:16;11.00;99.90
26503;DHT22;14177;51.520;6.764;2023-12-29T05:21:52;10.90;99.90
26503;DHT22;14177;51.520;6.764;2023-12-29T05:24:57;11.00;99.90
26503;DHT22;14177;51.520;6.764;2023-12-29T05:28:01;11.00;99.90
26503;DHT22;14177;51.520;6.764;2023-12-29T05:30:41;11.00;99.90
26503;DHT22;14177;51.520;6.764;2023-12-29T05:33:17;11.00;99.90
26503;DHT22;14177;51.520;6.764;2023-12-29T05:36:24;11.00;99.90
26503;DHT22;14177;51.520;6.764;2023-12-29T05:38:58;11.00;99.90
26503;DHT22;14177;51.520;6.764;2023-12-29T05:41:45;11.00;99.90
26503;DHT22;14177;51.520;6.764;2023-12-29T05:44:19;11.00;99.90
26503;DHT22;14177;51.520;6.764;2023-12-29T05:46:56;11.00;99.90
26503;DHT22;14177;51.520;6.764;2023-12-29T05:50:16;10.90;99.90
26503;DHT22;14177;51.520;6.764;2023-12-29T05:52:57;10.90;99.90
26503;DHT22;14177;51.520;6.764;2023-12-29T05:55:24;10.90;99.90
26503;DHT22;14177;51.520;6.764;2023-12-29T05:57:51;10.90;99.90
26503;DHT22;14177;51.520;6.764;2023-12-29T06:00:18;10.90;99.90
26503;DHT22;14177;51.520;6.764;2023-12-29T06:02:45;10.90;99.90
26503;DHT22;14177;51.520;6.764;2023-12-29T06:05:12;10.90;99.90
26503;DHT22;14177;51.520;6.764;2023-12-29T06:07:39;10.90;99.90
26503;DHT22;14177;51.520;6.764;2023-12-29T06:10:07;10.90;99.90
26503;DHT22;14177;51.520;6.764;2023-12-29T06:12:36;10.80;99.90
26503;DHT22;14177;51.520;6.764;2023-12-29T06:15:03;10.80;99.90
26503;DHT22;14177;51.520;6.764;2023-12-29T06:17:31;10.90;99.90
26503;DHT22;14177;51.520;6.764;2023-12-29T06:19:59;10.90;99.90
26503;DHT22;14177;51.520;6.764;2023-12-29T06:22:27;10.80;99.90
26503;DHT22;14177;51.520;6.764;2023-12-29T06:24:54;10.80;99.90
26503;DHT22;14177;51.520;6.764;2023-12-29T06:27:21;10.80;99.90
26503;DHT22;14177;51.520;6.764;2023-12-29T06:29:49;10.80;99.90
26503;DHT22;14177;51.520;6.764;2023-12-29T06:32:17;10.90;99.90
26503;DHT22;14177;51.520;6.764;2023-12-29T06:34:43;10.90;99.90
26503;DHT22;14177;51.520;6.764;2023-12-29T06:37:10;10.80;99.90
26503;DHT22;14177;51.520;6.764;2023-12-29T06:39:38;10.90;99.90
26503;DHT22;14177;51.520;6.764;2023-12-29T06:42:06;10.90;99.90
26503;DHT22;14177;51.520;6.764;2023-12-29T06:44:33;10.80;99.90
26503;DHT22;14177;51.520;6.764;2023-12-29T06:47:00;10.80;99.90
26503;DHT22;14177;51.520;6.764;2023-12-29T06:49:27;10.80;99.90
26503;DHT22;14177;51.520;6.764;2023-12-29T06:51:54;10.90;99.90
26503;DHT22;14177;51.520;6.764;2023-12-29T06:54:21;10.90;99.90
26503;DHT22;14177;51.520;6.764;2023-12-29T06:56:49;10.90;99.90
26503;DHT22;14177;51.520;6.764;2023-12-29T06:59:16;10.90;99.90
26503;DHT22;14177;51.520;6.764;2023-12-29T07:01:43;10.90;99.90
26503;DHT22;14177;51.520;6.764;2023-12-29T07:04:10;10.90;99.90
26503;DHT22;14177;51.520;6.764;2023-12-29T07:06:37;10.90;99.90
26503;DHT22;14177;51.520;6.764;2023-12-29T07:09:04;10.80;99.90
26503;DHT22;14177;51.520;6.764;2023-12-29T07:11:32;10.90;99.90
26503;DHT22;14177;51.520;6.764;2023-12-29T07:13:59;10.80;99.90
26503;DHT22;14177;51.520;6.764;2023-12-29T07:16:26;10.80;99.90
26503;DHT22;14177;51.520;6.764;2023-12-29T07:18:53;10.80;99.90
26503;DHT22;14177;51.520;6.764;2023-12-29T07:21:20;10.70;99.90
26503;DHT22;14177;51.520;6.764;2023-12-29T07:23:47;10.70;99.90
26503;DHT22;14177;51.520;6.764;2023-12-29T07:26:14;10.70;99.90
26503;DHT22;14177;51.520;6.764;2023-12-29T07:28:42;10.60;99.90
26503;DHT22;14177;51.520;6.764;2023-12-29T07:31:09;10.60;99.90
26503;DHT22;14177;51.520;6.764;2023-12-29T07:33:36;10.60;99.90
26503;DHT22;14177;51.520;6.764;2023-12-29T07:36:03;10.60;99.90
26503;DHT22;14177;51.520;6.764;2023-12-29T07:38:31;10.60;99.90
26503;DHT22;14177;51.520;6.764;2023-12-29T07:40:58;10.50;99.90
26503;DHT22;14177;51.520;6.764;2023-12-29T07:43:25;10.50;99.90
26503;DHT22;14177;51.520;6.764;2023-12-29T07:45:52;10.50;99.90
26503;DHT22;14177;51.520;6.764;2023-12-29T07:48:19;10.50;99.90
26503;DHT22;14177;51.520;6.764;2023-12-29T07:50:46;10.50;99.90
26503;DHT22;14177;51.520;6.764;2023-12-29T07:53:13;10.50;99.90
26503;DHT22;14177;51.520;6.764;2023-12-29T07:55:42;10.50;99.90
26503;DHT22;14177;51.520;6.764;2023-12-29T07:58:10;10.50;99.90
26503;DHT22;14177;51.520;6.764;2023-12-29T08:00:37;10.50;99.90
26503;DHT22;14177;51.520;6.764;2023-12-29T08:03:04;10.50;99.90
26503;DHT22;14177;51.520;6.764;2023-12-29T08:05:33;10.50;99.90
26503;DHT22;14177;51.520;6.764;2023-12-29T08:08:00;10.50;99.90
26503;DHT22;14177;51.520;6.764;2023-12-29T08:10:28;10.50;99.90
26503;DHT22;14177;51.520;6.764;2023-12-29T08:12:55;10.50;99.90
26503;DHT22;14177;51.520;6.764;2023-12-29T08:15:22;10.50;99.90
26503;DHT22;14177;51.520;6.764;2023-12-29T08:17:49;10.60;99.90
26503;DHT22;14177;51.520;6.764;2023-12-29T08:20:16;10.60;99.90
26503;DHT22;14177;51.520;6.764;2023-12-29T08:22:43;10.60;99.90
26503;DHT22;14177;51.520;6.764;2023-12-29T08:25:10;10.60;99.90
26503;DHT22;14177;51.520;6.764;2023-12-29T08:27:37;10.60;99.90
26503;DHT22;14177;51.520;6.764;2023-12-29T08:30:04;10.60;99.90
26503;DHT22;14177;51.520;6.764;2023-12-29T08:32:32;10.60;99.90
26503;DHT22;14177;51.520;6.764;2023-12-29T08:35:00;10.50;99.90
26503;DHT22;14177;51.520;6.764;2023-12-29T08:37:27;10.50;99.90
26503;DHT22;14177;51.520;6.764;2023-12-29T08:39:55;10.40;99.90
26503;DHT22;14177;51.520;6.764;2023-12-29T08:42:24;10.40;99.90
26503;DHT22;14177;51.520;6.764;2023-12-29T08:44:51;10.40;99.90
26503;DHT22;14177;51.520;6.764;2023-12-29T08:47:18;10.40;99.90
26503;DHT22;14177;51.520;6.764;2023-12-29T08:49:45;10.40;99.90
26503;DHT22;14177;51.520;6.764;2023-12-29T08:52:13;10.40;99.90
26503;DHT22;14177;51.520;6.764;2023-12-29T08:54:40;10.50;99.90
26503;DHT22;14177;51.520;6.764;2023-12-29T08:57:07;10.50;99.90
26503;DHT22;14177;51.520;6.764;2023-12-29T08:59:35;10.50;99.90
26503;DHT22;14177;51.520;6.764;2023-12-29T09:02:02;10.60;99.90
26503;DHT22;14177;51.520;6.764;2023-12-29T09:04:29;10.60;99.90
26503;DHT22;14177;51.520;6.764;2023-12-29T09:06:56;10.60;99.90
26503;DHT22;14177;51.520;6.764;2023-12-29T09:09:24;10.60;99.90
26503;DHT22;14177;51.520;6.764;2023-12-29T09:11:51;10.60;99.90
26503;DHT22;14177;51.520;6.764;2023-12-29T09:14:18;10.60;99.90
26503;DHT22;14177;51.520;6.764;2023-12-29T09:16:44;10.60;99.90
26503;DHT22;14177;51.520;6.764;2023-12-29T09:19:13;10.70;99.90
26503;DHT22;14177;51.520;6.764;2023-12-29T09:21:56;10.70;99.90
26503;DHT22;14177;51.520;6.764;2023-12-29T09:24:23;10.70;99.90
26503;DHT22;14177;51.520;6.764;2023-12-29T09:26:51;10.70;99.90
26503;DHT22;14177;51.520;6.764;2023-12-29T09:29:19;10.70;99.90
26503;DHT22;14177;51.520;6.764;2023-12-29T09:31:46;10.70;99.90
26503;DHT22;14177;51.520;6.764;2023-12-29T09:34:13;10.80;99.90
26503;DHT22;14177;51.520;6.764;2023-12-29T09:36:40;10.80;99.90
26503;DHT22;14177;51.520;6.764;2023-12-29T09:39:07;10.80;99.90
26503;DHT22;14177;51.520;6.764;2023-12-29T09:41:36;10.80;99.90
26503;DHT22;14177;51.520;6.764;2023-12-29T09:44:14;10.80;99.90
26503;DHT22;14177;51.520;6.764;2023-12-29T09:46:42;10.80;99.90
26503;DHT22;14177;51.520;6.764;2023-12-29T09:49:10;10.80;99.90
26503;DHT22;14177;51.520;6.764;2023-12-29T09:51:40;10.80;99.90
26503;DHT22;14177;51.520;6.764;2023-12-29T09:54:08;10.80;99.90
26503;DHT22;14177;51.520;6.764;2023-12-29T09:56:40;10.90;99.90
26503;DHT22;14177;51.520;6.764;2023-12-29T09:59:11;10.90;99.90
26503;DHT22;14177;51.520;6.764;2023-12-29T10:01:41;10.90;99.90
26503;DHT22;14177;51.520;6.764;2023-12-29T10:04:11;10.90;99.90
26503;DHT22;14177;51.520;6.764;2023-12-29T10:06:41;10.90;99.90
26503;DHT22;14177;51.520;6.764;2023-12-29T10:09:17;10.90;99.90
26503;DHT22;14177;51.520;6.764;2023-12-29T10:11:48;10.90;99.90
26503;DHT22;14177;51.520;6.764;2023-12-29T10:14:45;10.90;99.90
26503;DHT22;14177;51.520;6.764;2023-12-29T10:25:40;10.80;99.90
26503;DHT22;14177;51.520;6.764;2023-12-29T10:28:09;10.80;99.90
26503;DHT22;14177;51.520;6.764;2023-12-29T10:30:36;10.80;99.90
26503;DHT22;14177;51.520;6.764;2023-12-29T10:33:04;10.80;99.90
26503;DHT22;14177;51.520;6.764;2023-12-29T10:35:34;10.80;99.90
26503;DHT22;14177;51.520;6.764;2023-12-29T10:38:12;10.80;99.90
26503;DHT22;14177;51.520;6.764;2023-12-29T10:40:40;10.80;99.90
26503;DHT22;14177;51.520;6.764;2023-12-29T10:43:09;10.80;99.90
26503;DHT22;14177;51.520;6.764;2023-12-29T10:45:37;10.80;99.90
26503;DHT22;14177;51.520;6.764;2023-12-29T10:48:05;10.80;99.90
26503;DHT22;14177;51.520;6.764;2023-12-29T10:50:51;10.90;99.90
26503;DHT22;14177;51.520;6.764;2023-12-29T10:53:18;10.90;99.90
26503;DHT22;14177;51.520;6.764;2023-12-29T10:55:45;11.00;99.90
26503;DHT22;14177;51.520;6.764;2023-12-29T10:58:16;11.00;99.90
26503;DHT22;14177;51.520;6.764;2023-12-29T11:00:44;11.00;99.90
26503;DHT22;14177;51.520;6.764;2023-12-29T11:03:15;11.00;99.90
26503;DHT22;14177;51.520;6.764;2023-12-29T11:05:45;11.00;99.90
26503;DHT22;14177;51.520;6.764;2023-12-29T11:08:17;11.00;99.90
26503;DHT22;14177;51.520;6.764;2023-12-29T11:10:47;11.10;99.90
26503;DHT22;14177;51.520;6.764;2023-12-29T11:13:15;11.10;99.90
26503;DHT22;14177;51.520;6.764;2023-12-29T11:15:46;11.20;99.90
26503;DHT22;14177;51.520;6.764;2023-12-29T11:18:16;11.20;99.90
26503;DHT22;14177;51.520;6.764;2023-12-29T11:20:45;11.30;99.90
26503;DHT22;14177;51.520;6.764;2023-12-29T11:23:13;11.40;99.90
26503;DHT22;14177;51.520;6.764;2023-12-29T11:25:44;11.50;99.90
26503;DHT22;14177;51.520;6.764;2023-12-29T11:28:16;11.50;99.90
26503;DHT22;14177;51.520;6.764;2023-12-29T11:30:44;11.60;99.90
26503;DHT22;14177;51.520;6.764;2023-12-29T11:33:16;11.60;99.90
26503;DHT22;14177;51.520;6.764;2023-12-29T11:38:58;11.60;99.90
26503;DHT22;14177;51.520;6.764;2023-12-29T11:41:51;11.60;99.90
26503;DHT22;14177;51.520;6.764;2023-12-29T11:44:27;11.60;99.90
26503;DHT22;14177;51.520;6.764;2023-12-29T11:46:56;11.60;99.90
26503;DHT22;14177;51.520;6.764;2023-12-29T11:49:58;11.60;99.90
26503;DHT22;14177;51.520;6.764;2023-12-29T11:52:36;11.50;99.90
26503;DHT22;14177;51.520;6.764;2023-12-29T11:55:12;11.50;99.90
26503;DHT22;14177;51.520;6.764;2023-12-29T11:57:46;11.50;99.90
26503;DHT22;14177;51.520;6.764;2023-12-29T12:00:13;11.40;99.90
26503;DHT22;14177;51.520;6.764;2023-12-29T12:02:41;11.50;99.90
26503;DHT22;14177;51.520;6.764;2023-12-29T12:05:09;11.40;99.90
26503;DHT22;14177;51.520;6.764;2023-12-29T12:12:47;11.40;99.90
26503;DHT22;14177;51.520;6.764;2023-12-29T12:17:58;11.30;99.90
26503;DHT22;14177;51.520;6.764;2023-12-29T12:20:27;11.30;99.90
26503;DHT22;14177;51.520;6.764;2023-12-29T12:23:00;11.30;99.90
26503;DHT22;14177;51.520;6.764;2023-12-29T12:25:31;11.30;99.90
26503;DHT22;14177;51.520;6.764;2023-12-29T12:28:06;11.30;99.90
26503;DHT22;14177;51.520;6.764;2023-12-29T12:30:34;11.20;99.90
26503;DHT22;14177;51.520;6.764;2023-12-29T12:33:02;11.30;99.90
26503;DHT22;14177;51.520;6.764;2023-12-29T12:35:32;11.20;99.90
26503;DHT22;14177;51.520;6.764;2023-12-29T12:38:16;11.20;99.90
26503;DHT22;14177;51.520;6.764;2023-12-29T12:40:48;11.20;99.90
26503;DHT22;14177;51.520;6.764;2023-12-29T12:43:16;11.20;99.90
26503;DHT22;14177;51.520;6.764;2023-12-29T12:45:48;11.20;99.90
26503;DHT22;14177;51.520;6.764;2023-12-29T12:48:31;11.10;99.90
26503;DHT22;14177;51.520;6.764;2023-12-29T12:51:02;11.10;99.90
26503;DHT22;14177;51.520;6.764;2023-12-29T12:53:30;11.00;99.90
26503;DHT22;14177;51.520;6.764;2023-12-29T12:55:57;11.00;99.90
26503;DHT22;14177;51.520;6.764;2023-12-29T12:58:25;10.90;99.90
26503;DHT22;14177;51.520;6.764;2023-12-29T13:00:57;10.90;99.90
26503;DHT22;14177;51.520;6.764;2023-12-29T13:03:27;10.80;99.90
26503;DHT22;14177;51.520;6.764;2023-12-29T13:05:54;10.80;99.90
26503;DHT22;14177;51.520;6.764;2023-12-29T13:08:25;10.80;99.90
26503;DHT22;14177;51.520;6.764;2023-12-29T13:11:03;10.80;99.90
26503;DHT22;14177;51.520;6.764;2023-12-29T13:13:41;10.80;99.90
26503;DHT22;14177;51.520;6.764;2023-12-29T13:16:10;10.90;99.90
26503;DHT22;14177;51.520;6.764;2023-12-29T13:18:38;10.90;99.90
26503;DHT22;14177;51.520;6.764;2023-12-29T13:21:06;10.90;99.90
26503;DHT22;14177;51.520;6.764;2023-12-29T13:23:34;10.90;99.90
26503;DHT22;14177;51.520;6.764;2023-12-29T13:26:09;10.90;99.90
26503;DHT22;14177;51.520;6.764;2023-12-29T13:28:37;11.00;99.90
26503;DHT22;14177;51.520;6.764;2023-12-29T13:31:09;10.90;99.90
26503;DHT22;14177;51.520;6.764;2023-12-29T13:33:57;11.00;99.90
26503;DHT22;14177;51.520;6.764;2023-12-29T13:36:38;11.00;99.90
26503;DHT22;14177;51.520;6.764;2023-12-29T13:42:00;11.10;99.90
26503;DHT22;14177;51.520;6.764;2023-12-29T13:44:29;11.10;99.90
26503;DHT22;14177;51.520;6.764;2023-12-29T13:46:58;11.10;99.90
26503;DHT22;14177;51.520;6.764;2023-12-29T13:49:26;11.10;99.90
26503;DHT22;14177;51.520;6.764;2023-12-29T13:51:53;11.00;99.90
26503;DHT22;14177;51.520;6.764;2023-12-29T13:54:20;11.00;99.90
26503;DHT22;14177;51.520;6.764;2023-12-29T13:56:52;10.90;99.90
26503;DHT22;14177;51.520;6.764;2023-12-29T13:59:32;10.90;99.90
26503;DHT22;14177;51.520;6.764;2023-12-29T14:02:15;10.90;99.90
26503;DHT22;14177;51.520;6.764;2023-12-29T14:04:47;10.90;99.90
26503;DHT22;14177;51.520;6.764;2023-12-29T14:07:19;11.00;99.90
26503;DHT22;14177;51.520;6.764;2023-12-29T14:09:46;11.10;99.90
26503;DHT22;14177;51.520;6.764;2023-12-29T14:12:13;11.10;99.90
26503;DHT22;14177;51.520;6.764;2023-12-29T14:14:52;11.10;99.90
26503;DHT22;14177;51.520;6.764;2023-12-29T14:17:22;11.20;99.90
26503;DHT22;14177;51.520;6.764;2023-12-29T14:19:49;11.20;99.90
26503;DHT22;14177;51.520;6.764;2023-12-29T14:22:22;11.20;99.90
26503;DHT22;14177;51.520;6.764;2023-12-29T14:25:03;11.30;99.90
26503;DHT22;14177;51.520;6.764;2023-12-29T14:27:31;11.30;99.90
26503;DHT22;14177;51.520;6.764;2023-12-29T14:29:58;11.40;99.90
26503;DHT22;14177;51.520;6.764;2023-12-29T14:32:28;11.40;99.90
26503;DHT22;14177;51.520;6.764;2023-12-29T14:34:56;11.40;99.90
26503;DHT22;14177;51.520;6.764;2023-12-29T14:37:23;11.40;99.90
26503;DHT22;14177;51.520;6.764;2023-12-29T14:39:52;11.40;99.90
26503;DHT22;14177;51.520;6.764;2023-12-29T14:42:19;11.30;99.90
26503;DHT22;14177;51.520;6.764;2023-12-29T14:44:46;11.30;99.90
26503;DHT22;14177;51.520;6.764;2023-12-29T14:47:15;11.30;99.90
26503;DHT22;14177;51.520;6.764;2023-12-29T14:49:43;11.20;99.90
26503;DHT22;14177;51.520;6.764;2023-12-29T14:52:10;11.30;99.90
26503;DHT22;14177;51.520;6.764;2023-12-29T14:54:38;11.20;99.90
26503;DHT22;14177;51.520;6.764;2023-12-29T14:57:07;11.20;99.90
26503;DHT22;14177;51.520;6.764;2023-12-29T14:59:41;11.20;99.90
26503;DHT22;14177;51.520;6.764;2023-12-29T15:02:08;11.20;99.90
26503;DHT22;14177;51.520;6.764;2023-12-29T15:04:36;11.20;99.90
26503;DHT22;14177;51.520;6.764;2023-12-29T15:07:03;11.10;99.90
26503;DHT22;14177;51.520;6.764;2023-12-29T15:09:31;11.00;99.90
26503;DHT22;14177;51.520;6.764;2023-12-29T15:11:58;11.00;99.90
26503;DHT22;14177;51.520;6.764;2023-12-29T15:14:25;10.90;99.90
26503;DHT22;14177;51.520;6.764;2023-12-29T15:16:52;10.90;99.90
26503;DHT22;14177;51.520;6.764;2023-12-29T15:19:19;10.90;99.90
26503;DHT22;14177;51.520;6.764;2023-12-29T15:21:47;10.90;99.90
26503;DHT22;14177;51.520;6.764;2023-12-29T15:24:14;10.90;99.90
26503;DHT22;14177;51.520;6.764;2023-12-29T15:26:41;10.90;99.90
26503;DHT22;14177;51.520;6.764;2023-12-29T15:29:08;10.80;99.90
26503;DHT22;14177;51.520;6.764;2023-12-29T15:31:35;10.80;99.90
26503;DHT22;14177;51.520;6.764;2023-12-29T15:34:02;10.70;99.90
26503;DHT22;14177;51.520;6.764;2023-12-29T15:36:30;10.60;99.90
26503;DHT22;14177;51.520;6.764;2023-12-29T15:38:57;10.50;99.90
26503;DHT22;14177;51.520;6.764;2023-12-29T15:41:24;10.40;99.90
26503;DHT22;14177;51.520;6.764;2023-12-29T15:43:51;10.30;99.90
26503;DHT22;14177;51.520;6.764;2023-12-29T15:46:19;10.30;99.90
26503;DHT22;14177;51.520;6.764;2023-12-29T15:48:49;10.30;99.90
26503;DHT22;14177;51.520;6.764;2023-12-29T15:51:16;10.40;99.90
26503;DHT22;14177;51.520;6.764;2023-12-29T15:53:43;10.40;99.90
26503;DHT22;14177;51.520;6.764;2023-12-29T15:56:17;10.40;99.90
26503;DHT22;14177;51.520;6.764;2023-12-29T15:58:48;10.50;99.90
26503;DHT22;14177;51.520;6.764;2023-12-29T16:01:22;10.50;99.90
26503;DHT22;14177;51.520;6.764;2023-12-29T16:03:52;10.50;99.90
26503;DHT22;14177;51.520;6.764;2023-12-29T16:06:26;10.50;99.90
26503;DHT22;14177;51.520;6.764;2023-12-29T16:08:54;10.50;99.90
26503;DHT22;14177;51.520;6.764;2023-12-29T16:11:25;10.50;99.90
26503;DHT22;14177;51.520;6.764;2023-12-29T16:13:53;10.50;99.90